Dover Foxcroft, ME

12:49 PM EDT on July 03, 2015 (GMT -0400)
SeDoMoCha Campus | | Change Station
CLOSE
Current Station
Personal Weather Station
Location: Dover-Foxcroft, ME
Elevation: 381 ft
Nearby Weather Stations

Elev 381 ft 45.19 °N, 69.23 °W | Updated 5 seconds ago

Partly Cloudy
Partly Cloudy
74.0 °F
Feels Like 77 °F
N
7.0
Wind Variable Wind from WSW
Gusts 17.0 mph

Today
High -- | Low -- °F
--% Chance of Precip.
Yesterday
High -- | Low -- °F
Precip. -- in
4:54 AM 8:27 PM
Waning Gibbous, 97% visible
Pressure 29.87 in
Visibility 10.0 miles
Clouds Scattered Clouds 5000 ft
Scattered Clouds 15000 ft
Heat Index 77 °F
Dew Point 41 °F
Humidity 30%
Rainfall 0.00 in
Snow Depth Not available.
UV 9 out of 12
Pollen 4.90 out of 12
Air Quality Not available.
Flu Activity Not available.
METAR KBGR 031553Z 31010G17KT 10SM SCT050 SCT150 23/08 A2988 RMK AO2 SLP114 T02280078

More Conditions Fewer Conditions

Pressure 29.87 in
Visibility 10.0 miles
Clouds Scattered Clouds 5000 ft
Scattered Clouds 15000 ft
Heat Index 77 °F
Dew Point 41 °F
Humidity 30%
Rainfall 0.00 in
Snow Depth Not available.
UV 9 out of 12
Pollen 4.90 out of 12
Air Quality Not available.
Flu Activity Not available.
METAR KBGR 031553Z 31010G17KT 10SM SCT050 SCT150 23/08 A2988 RMK AO2 SLP114 T02280078

More Conditions Fewer Conditions

10-Day Weather Forecast

×

Almanac

Astronomy

Jul. 03, 2015 Rise Set
Actual Time
Civil Twilight
Nautical Twilight
Astronomical Twilight
Moon
Length of Visible Light
Length of Day
Tomorrow will be .
, % of the Moon is Illuminated

Today's Extremes

State Highs State Lows

Community

WunderPhotos

Upload Photos

1,834,697 photos uploaded!

WunderBlogs® & News

Nearby

Air Quality

  Air Quality AQ Index Pollutant
Not available.

Snow Depth

Station Depth Elevation

Earthquake Activity

City Distance Mag. Time & Date
Minimum magnitude displayed is 2.5.

Coastal Water Temperatures

Place Temperature

Stations

Nearby Weather Stations

Station Location Temp. Windchill Dew Point Humidity Wind Precip. Elev Updated Type